Time;durP1;ratioP1;P1;durP2;ratioP2;P2;SDS_P1;SDS_P2;PMS_P1;PMS_P2;Temp;Humidity;BMP_temperature;BMP_pressure;BME280_temperature;BME280_humidity;BME280_pressure;Samples;Min_cycle;Max_cycle;Signal;HPM_P1;HPM_P2
2022/01/12 00:01:42;;;;;;;106.55;89.82;;;20.20;44.50;;;;;;4744026;55;21555;-34
2022/01/12 00:06:43;;;;;;;105.82;89.28;;;20.20;44.50;;;;;;4743168;55;21512;-35
2022/01/12 00:11:43;;;;;;;108.07;89.93;;;20.20;44.40;;;;;;4743955;55;21077;-36
2022/01/12 00:16:47;;;;;;;106.68;88.68;;;20.20;44.50;;;;;;4742450;55;21038;-35
2022/01/12 00:21:48;;;;;;;103.87;86.47;;;20.20;44.30;;;;;;4739887;55;21566;-37
2022/01/12 00:37:29;;;;;;;99.97;84.18;;;20.20;44.50;;;;;;4737870;59;21105;-33
2022/01/12 00:42:30;;;;;;;99.30;82.60;;;20.20;44.20;;;;;;4738687;57;21636;-38
2022/01/12 00:47:31;;;;;;;95.20;78.47;;;20.20;44.10;;;;;;4810107;55;22098;-31
2022/01/12 00:52:32;;;;;;;98.22;80.60;;;20.20;44.20;;;;;;4753717;55;21062;-36
2022/01/12 00:57:33;;;;;;;92.30;78.78;;;20.20;44.20;;;;;;4744125;55;21114;-36
2022/01/12 01:02:34;;;;;;;89.78;75.25;;;20.20;44.10;;;;;;4759317;55;21464;-36
2022/01/12 01:07:35;;;;;;;88.68;75.68;;;20.20;44.00;;;;;;4770954;55;21085;-33
2022/01/12 01:12:36;;;;;;;89.90;75.68;;;20.20;44.50;;;;;;4738342;55;21010;-26
2022/01/12 01:30:49;;;;;;;80.65;69.05;;;20.10;43.90;;;;;;4745814;55;21117;-36
2022/01/12 01:35:55;;;;;;;82.57;69.18;;;20.20;44.00;;;;;;4770126;55;21018;-36
2022/01/12 01:40:56;;;;;;;82.85;69.15;;;20.10;43.80;;;;;;4738144;59;21996;-35
2022/01/12 01:56:36;;;;;;;79.95;67.32;;;20.10;43.80;;;;;;4738182;55;21014;-29
2022/01/12 02:01:37;;;;;;;80.80;68.18;;;20.10;43.70;;;;;;4766966;55;21009;-35
2022/01/12 02:06:39;;;;;;;79.75;66.82;;;20.10;43.70;;;;;;4750064;55;21085;-42
2022/01/12 02:11:40;;;;;;;75.57;65.35;;;20.10;43.60;;;;;;4749519;55;21098;-38
2022/01/12 02:16:52;;;;;;;75.22;64.57;;;20.10;43.60;;;;;;4738349;55;21354;-32
2022/01/12 02:55:42;;;;;;;70.87;59.22;;;20.10;43.40;;;;;;4755417;55;21034;-39
2022/01/12 03:06:05;;;;;;;66.30;55.63;;;20.10;43.40;;;;;;4759186;55;21090;-37
2022/01/12 03:11:12;;;;;;;62.70;54.08;;;20.10;43.30;;;;;;4747466;55;21496;-40
2022/01/12 03:16:15;;;;;;;64.75;54.40;;;20.00;43.30;;;;;;4740498;55;20998;-41
2022/01/12 03:21:18;;;;;;;63.20;53.58;;;20.10;43.30;;;;;;4762538;55;21018;-38
2022/01/12 03:26:20;;;;;;;64.25;54.42;;;20.00;43.20;;;;;;4737861;56;21027;-34
2022/01/12 03:31:26;;;;;;;62.45;52.15;;;20.10;43.30;;;;;;4782282;55;21006;-36
2022/01/12 03:36:40;;;;;;;59.95;50.17;;;20.00;43.10;;;;;;4759811;55;21583;-38
2022/01/12 03:41:43;;;;;;;59.60;50.83;;;20.00;43.20;;;;;;4764920;55;21953;-36
2022/01/12 03:46:50;;;;;;;58.17;50.20;;;20.00;43.10;;;;;;4761673;55;21010;-32
2022/01/12 03:51:51;;;;;;;56.67;48.10;;;20.00;43.20;;;;;;4756312;55;21023;-44
2022/01/12 03:56:52;;;;;;;55.08;47.65;;;20.00;43.10;;;;;;4743814;55;22165;-42
2022/01/12 04:01:53;;;;;;;53.87;46.37;;;20.00;43.00;;;;;;4744144;55;21670;-39
2022/01/12 04:13:49;;;;;;;55.50;47.22;;;20.00;42.90;;;;;;4757164;55;21038;-46
2022/01/12 04:18:49;;;;;;;52.60;45.25;;;20.00;42.90;;;;;;4766897;55;21504;-37
2022/01/12 04:23:50;;;;;;;53.05;45.45;;;20.00;42.90;;;;;;4741318;55;20997;-41
2022/01/12 04:28:52;;;;;;;49.72;42.78;;;20.00;43.30;;;;;;4740600;55;22321;-34
2022/01/12 04:33:53;;;;;;;51.78;44.05;;;20.00;42.90;;;;;;4754146;55;21014;-36
2022/01/12 04:38:54;;;;;;;49.33;41.35;;;20.00;42.90;;;;;;4739136;55;21477;-36
2022/01/12 04:43:56;;;;;;;50.22;42.10;;;20.00;42.90;;;;;;4783468;55;21104;-36
2022/01/12 04:54:19;;;;;;;49.22;41.00;;;20.00;42.80;;;;;;4738158;55;21085;-37
2022/01/12 04:59:20;;;;;;;47.42;41.40;;;20.00;42.90;;;;;;4738155;59;21069;-31
2022/01/12 05:10:00;;;;;;;47.00;39.53;;;20.00;42.80;;;;;;4736804;59;21936;-37
2022/01/12 05:15:07;;;;;;;43.97;37.65;;;20.00;42.90;;;;;;4792111;55;21476;-36
2022/01/12 05:20:09;;;;;;;;;;;20.00;42.80;;;;;;4743862;55;21544;-39
2022/01/12 05:25:10;;;;;;;44.75;37.92;;;20.00;42.70;;;;;;4843869;55;20095;-35
2022/01/12 05:30:12;;;;;;;43.75;37.88;;;20.00;43.40;;;;;;4756140;55;20994;-38
2022/01/12 05:35:16;;;;;;;44.15;37.72;;;19.90;42.80;;;;;;4743143;55;21025;-39
2022/01/12 05:40:20;;;;;;;43.97;37.75;;;19.90;42.70;;;;;;4742457;55;21592;-36
2022/01/12 05:45:23;;;;;;;43.85;37.42;;;19.90;42.70;;;;;;4754826;55;22367;-36
2022/01/12 05:50:25;;;;;;;41.63;35.67;;;19.90;42.70;;;;;;4737517;59;21540;-30
2022/01/12 05:55:26;;;;;;;42.47;36.53;;;19.90;42.90;;;;;;4759061;55;21005;-40
2022/01/12 06:00:29;;;;;;;40.72;34.97;;;19.90;43.10;;;;;;4737781;59;21533;-38
2022/01/12 06:05:29;;;;;;;40.28;34.53;;;19.90;43.20;;;;;;4775671;55;21054;-38
2022/01/12 06:10:33;;;;;;;39.97;34.83;;;19.90;43.20;;;;;;4751003;55;21488;-40
2022/01/12 06:15:34;;;;;;;38.53;33.63;;;19.90;43.30;;;;;;4754881;55;21109;-35
2022/01/12 06:20:35;;;;;;;38.83;33.60;;;19.90;43.30;;;;;;4738265;55;21041;-41
2022/01/12 06:25:36;;;;;;;38.67;34.30;;;19.90;43.30;;;;;;4746118;55;20998;-38
2022/01/12 06:36:50;;;;;;;39.22;33.13;;;19.90;43.40;;;;;;4759171;55;21563;-37
2022/01/12 06:41:54;;;;;;;38.53;32.95;;;19.90;43.30;;;;;;4784211;55;21018;-40
2022/01/12 06:46:58;;;;;;;41.00;35.08;;;19.90;43.20;;;;;;4753520;55;21074;-42
2022/01/12 06:52:02;;;;;;;39.17;33.30;;;19.90;43.50;;;;;;4751152;55;21496;-37
2022/01/12 06:57:03;;;;;;;39.88;33.40;;;19.90;43.30;;;;;;4745986;55;21677;-34
2022/01/12 07:02:04;;;;;;;40.80;35.40;;;19.90;43.20;;;;;;4771913;55;21001;-46
2022/01/12 07:07:05;;;;;;;38.13;34.00;;;19.90;43.20;;;;;;4741596;55;21553;-38
2022/01/12 07:12:07;;;;;;;41.83;35.75;;;19.90;43.00;;;;;;4748276;55;21006;-40
2022/01/12 07:17:10;;;;;;;41.28;35.40;;;19.90;43.10;;;;;;4754875;55;21054;-41
2022/01/12 07:22:11;;;;;;;41.65;34.47;;;19.90;43.10;;;;;;4747367;55;21556;-36
2022/01/12 07:27:11;;;;;;;41.30;35.15;;;19.90;43.10;;;;;;4737387;59;21018;-36
2022/01/12 07:32:13;;;;;;;43.78;36.90;;;19.90;43.00;;;;;;4755349;55;21017;-41
2022/01/12 07:37:14;;;;;;;43.47;36.80;;;19.90;43.10;;;;;;4738234;55;21049;-33
2022/01/12 07:42:15;;;;;;;43.80;36.95;;;19.90;43.10;;;;;;4739071;55;21532;-37
2022/01/12 07:47:16;;;;;;;44.33;36.83;;;19.90;43.00;;;;;;4758661;55;21074;-36
2022/01/12 07:52:16;;;;;;;42.92;35.75;;;19.80;42.90;;;;;;4738534;55;21046;-38
2022/01/12 07:57:17;;;;;;;46.40;38.15;;;19.90;43.60;;;;;;4764834;55;21100;-46
2022/01/12 08:02:18;;;;;;;45.70;38.60;;;19.90;43.00;;;;;;4756817;55;21002;-45
2022/01/12 08:07:19;;;;;;;48.75;39.70;;;19.90;43.00;;;;;;4749712;55;21504;-37
2022/01/12 08:12:20;;;;;;;47.70;40.00;;;19.80;42.80;;;;;;4739890;55;21010;-34
2022/01/12 08:17:21;;;;;;;47.45;39.80;;;19.90;43.00;;;;;;4759894;55;21009;-37
2022/01/12 08:22:21;;;;;;;50.92;41.17;;;19.90;43.30;;;;;;4775439;55;21524;-36
2022/01/12 08:27:23;;;;;;;48.05;39.92;;;20.00;43.50;;;;;;4783867;55;21001;-35
2022/01/12 08:32:24;;;;;;;47.95;39.33;;;20.00;43.70;;;;;;4749576;55;21101;-31
2022/01/12 08:37:25;;;;;;;51.63;41.28;;;20.00;43.90;;;;;;4750649;55;21485;-33
2022/01/12 08:42:26;;;;;;;49.97;41.20;;;20.10;44.10;;;;;;4742087;55;21481;-30
2022/01/12 08:47:27;;;;;;;56.60;43.83;;;20.10;44.30;;;;;;4759579;55;21005;-33
2022/01/12 08:52:30;;;;;;;59.38;45.83;;;20.10;44.30;;;;;;4744801;55;21030;-38
2022/01/12 08:57:31;;;;;;;65.68;46.33;;;20.20;44.50;;;;;;4743659;55;21506;-32
2022/01/12 09:02:32;;;;;;;57.50;43.63;;;20.20;44.70;;;;;;4747483;55;21037;-31
2022/01/12 09:07:33;;;;;;;57.28;43.35;;;20.30;45.00;;;;;;4738891;55;21543;-31
2022/01/12 09:12:36;;;;;;;56.72;44.90;;;20.40;45.10;;;;;;4752213;55;21038;-34
2022/01/12 09:17:37;;;;;;;60.75;46.78;;;20.30;45.00;;;;;;4767746;55;21483;-31
2022/01/12 09:22:38;;;;;;;58.83;46.00;;;20.40;45.10;;;;;;4750201;55;21046;-31
2022/01/12 09:27:40;;;;;;;61.70;48.05;;;20.30;45.00;;;;;;4743685;55;21070;-35
2022/01/12 09:32:41;;;;;;;62.58;47.47;;;20.30;45.00;;;;;;4804662;55;21057;-34
2022/01/12 09:37:43;;;;;;;64.47;50.50;;;20.40;45.20;;;;;;4747471;55;22108;-31
2022/01/12 09:42:47;;;;;;;65.03;50.97;;;20.50;45.20;;;;;;4742009;55;21456;-37
2022/01/12 09:47:49;;;;;;;70.57;52.80;;;20.70;45.10;;;;;;4743689;55;21006;-35
2022/01/12 09:52:51;;;;;;;71.45;54.15;;;20.80;44.90;;;;;;4754471;55;21511;-35
2022/01/12 09:57:52;;;;;;;69.62;53.30;;;20.90;45.00;;;;;;4761253;55;20986;-31
2022/01/12 10:02:53;;;;;;;71.45;54.70;;;21.10;45.10;;;;;;4750937;55;21030;-34
2022/01/12 10:07:54;;;;;;;72.40;56.00;;;21.10;45.10;;;;;;4758349;55;21114;-36
2022/01/12 10:12:56;;;;;;;75.05;58.50;;;21.20;45.10;;;;;;4752704;55;21106;-34
2022/01/12 10:18:04;;;;;;;75.32;59.58;;;21.30;45.10;;;;;;4755927;55;21474;-36
2022/01/12 10:23:09;;;;;;;79.87;59.50;;;21.40;45.20;;;;;;4760344;55;21010;-33
2022/01/12 10:28:19;;;;;;;83.10;62.00;;;21.50;45.30;;;;;;4770456;55;21595;-34
2022/01/12 10:33:22;;;;;;;80.18;63.10;;;21.50;45.90;;;;;;4816023;55;21184;-34
2022/01/12 10:38:24;;;;;;;81.32;65.32;;;21.60;45.30;;;;;;4752008;55;21070;-33
2022/01/12 10:43:39;;;;;;;85.22;66.60;;;21.60;45.30;;;;;;4772627;55;21046;-30
2022/01/12 10:48:51;;;;;;;91.63;71.87;;;21.70;45.40;;;;;;4736950;59;21033;-37
2022/01/12 10:53:58;;;;;;;88.25;71.05;;;21.80;45.40;;;;;;4751853;55;21046;-34
2022/01/12 10:58:59;;;;;;;99.35;75.50;;;21.80;45.40;;;;;;4757113;55;21116;-33
2022/01/12 11:04:00;;;;;;;93.75;75.40;;;21.80;45.40;;;;;;4773313;55;21604;-36
2022/01/12 11:09:03;;;;;;;96.18;77.90;;;21.90;45.40;;;;;;4740113;55;21089;-33
2022/01/12 11:14:04;;;;;;;99.57;78.95;;;22.00;45.50;;;;;;4756309;55;21074;-37
2022/01/12 11:19:09;;;;;;;101.62;81.80;;;22.00;45.50;;;;;;4744375;55;21057;-30
2022/01/12 11:24:13;;;;;;;103.25;82.95;;;22.00;45.50;;;;;;4737429;55;21006;-35
2022/01/12 11:29:23;;;;;;;107.18;84.70;;;22.10;45.50;;;;;;4760699;55;21010;-38
2022/01/12 11:34:24;;;;;;;113.50;86.70;;;22.10;45.60;;;;;;4747820;55;20998;-37
2022/01/12 11:39:32;;;;;;;108.20;87.53;;;22.10;45.50;;;;;;4739055;55;21460;-35
2022/01/12 11:44:38;;;;;;;119.03;90.62;;;22.20;45.60;;;;;;4747736;55;21801;-36
2022/01/12 11:49:47;;;;;;;118.37;93.07;;;22.20;45.60;;;;;;4793385;55;21471;-37
2022/01/12 11:54:51;;;;;;;124.60;97.00;;;22.20;45.70;;;;;;4737638;59;21648;-36
2022/01/12 12:00:04;;;;;;;122.93;99.18;;;22.30;45.80;;;;;;4767589;55;21483;-36
2022/01/12 12:05:27;;;;;;;130.65;101.38;;;22.30;45.90;;;;;;4742722;55;20966;-31
2022/01/12 12:10:35;;;;;;;133.85;104.38;;;22.30;45.90;;;;;;4738597;55;21083;-36
2022/01/12 12:15:36;;;;;;;132.65;104.38;;;22.30;45.90;;;;;;4742216;55;21114;-38
2022/01/12 12:20:37;;;;;;;132.15;104.32;;;22.40;45.90;;;;;;4749133;55;21543;-38
2022/01/12 12:25:38;;;;;;;137.20;108.10;;;22.40;46.00;;;;;;4747586;55;21069;-36
2022/01/12 12:30:39;;;;;;;135.80;107.00;;;22.40;46.00;;;;;;4804538;55;21992;-37
2022/01/12 12:35:42;;;;;;;139.65;106.95;;;22.40;46.00;;;;;;4745972;55;22194;-30
2022/01/12 12:40:49;;;;;;;142.85;111.45;;;22.40;45.80;;;;;;4753571;55;20998;-30
2022/01/12 12:45:59;;;;;;;144.15;109.10;;;22.40;45.70;;;;;;4737498;59;21014;-34
2022/01/12 12:51:12;;;;;;;142.50;109.15;;;22.40;45.90;;;;;;4737226;55;21153;-36
2022/01/12 12:56:17;;;;;;;148.20;112.20;;;22.40;45.60;;;;;;4761642;55;21555;-30
2022/01/12 13:01:19;;;;;;;148.18;113.20;;;22.40;45.30;;;;;;4753696;55;22327;-36
2022/01/12 13:06:29;;;;;;;148.90;114.25;;;22.30;45.00;;;;;;4768158;55;21060;-34
2022/01/12 13:11:39;;;;;;;152.07;117.32;;;22.30;44.70;;;;;;4751789;55;21499;-29
2022/01/12 13:16:54;;;;;;;152.68;115.90;;;22.30;44.50;;;;;;4737500;55;21472;-36
2022/01/12 13:21:55;;;;;;;150.48;115.28;;;22.40;44.00;;;;;;4754728;55;22224;-35
2022/01/12 13:26:56;;;;;;;152.23;116.18;;;22.40;44.00;;;;;;4755999;55;21109;-33
2022/01/12 13:31:57;;;;;;;151.48;116.35;;;22.30;44.20;;;;;;4744832;55;22067;-32
2022/01/12 13:36:57;;;;;;;155.77;120.13;;;22.30;44.40;;;;;;4743751;55;20994;-33
2022/01/12 13:41:59;;;;;;;154.95;116.43;;;22.30;44.60;;;;;;4761769;55;21552;-31
2022/01/12 13:47:21;;;;;;;166.98;125.57;;;22.20;44.70;;;;;;4797107;55;21078;-33
2022/01/12 13:52:21;;;;;;;178.73;133.68;;;22.10;44.90;;;;;;4760338;55;21607;-30
2022/01/12 13:57:26;;;;;;;183.35;135.43;;;22.10;45.00;;;;;;4755199;55;20987;-31
2022/01/12 14:02:29;;;;;;;174.62;128.73;;;22.10;45.20;;;;;;4739093;55;22097;-27
2022/01/12 14:07:35;;;;;;;185.70;137.23;;;22.10;45.50;;;;;;4753751;55;21517;-36
2022/01/12 14:12:37;;;;;;;189.60;138.65;;;22.00;45.60;;;;;;4756291;55;21603;-34
2022/01/12 14:17:43;;;;;;;202.27;144.70;;;22.00;45.80;;;;;;4766874;55;21534;-36
2022/01/12 14:23:09;;;;;;;199.55;144.95;;;22.00;46.00;;;;;;4766343;55;21114;-33
2022/01/12 14:28:13;;;;;;;206.55;149.90;;;22.00;46.20;;;;;;4738381;55;21429;-35
2022/01/12 14:33:14;;;;;;;204.43;148.25;;;22.00;46.40;;;;;;4749412;55;21054;-34
2022/01/12 14:38:15;;;;;;;219.80;158.55;;;22.00;46.60;;;;;;4741873;55;21531;-34
2022/01/12 14:43:16;;;;;;;216.38;156.18;;;21.90;46.70;;;;;;4738342;59;21018;-33
2022/01/12 14:48:17;;;;;;;206.75;148.32;;;21.90;46.80;;;;;;4750132;55;21512;-31
2022/01/12 14:53:21;;;;;;;213.07;154.48;;;21.90;46.80;;;;;;4738001;55;21169;-35
2022/01/12 14:58:23;;;;;;;212.88;152.73;;;21.90;47.00;;;;;;4781474;55;22204;-35
2022/01/12 15:03:28;;;;;;;218.77;160.40;;;21.90;47.00;;;;;;4737494;59;21456;-33
2022/01/12 15:08:29;;;;;;;214.35;155.45;;;21.90;47.10;;;;;;4736788;55;21113;-32
2022/01/12 15:13:41;;;;;;;209.62;159.32;;;21.80;47.10;;;;;;4737906;59;21013;-35
2022/01/12 15:18:42;;;;;;;208.20;153.65;;;21.80;47.20;;;;;;4752352;55;22020;-36
2022/01/12 15:23:43;;;;;;;206.05;148.52;;;21.80;47.30;;;;;;4740151;55;21033;-35
2022/01/12 15:28:44;;;;;;;204.45;153.18;;;21.80;47.40;;;;;;4736149;59;21017;-50
2022/01/12 15:33:45;;;;;;;213.30;156.35;;;21.80;47.60;;;;;;4823181;55;20994;-34
2022/01/12 15:38:46;;;;;;;206.87;151.98;;;21.80;47.40;;;;;;4739382;55;21017;-37
2022/01/12 15:43:47;;;;;;;214.35;157.62;;;21.70;47.20;;;;;;4736966;59;20994;-41
2022/01/12 15:48:48;;;;;;;211.60;156.37;;;21.60;46.90;;;;;;4738070;55;21460;-41
2022/01/12 15:53:49;;;;;;;205.73;153.55;;;21.60;46.80;;;;;;4756797;55;21083;-47
2022/01/12 15:58:51;;;;;;;210.32;157.45;;;21.60;46.40;;;;;;4740603;55;21731;-40
2022/01/12 16:03:52;;;;;;;218.77;157.93;;;21.50;45.80;;;;;;4765663;55;20998;-38
2022/01/12 16:08:54;;;;;;;220.80;160.95;;;21.40;45.90;;;;;;4737429;59;21179;-38
2022/01/12 16:13:54;;;;;;;210.77;158.35;;;21.40;45.80;;;;;;4828268;55;21483;-39
2022/01/12 16:18:55;;;;;;;209.93;156.37;;;21.30;45.90;;;;;;4756614;55;21050;-40
2022/01/12 16:23:57;;;;;;;215.68;157.65;;;21.30;45.90;;;;;;4758175;55;21018;-37
2022/01/12 16:28:59;;;;;;;201.35;151.85;;;21.20;45.80;;;;;;4753375;55;21594;-38
2022/01/12 16:34:00;;;;;;;214.85;162.85;;;21.20;45.70;;;;;;4773001;55;21563;-44
2022/01/12 16:39:06;;;;;;;208.07;156.75;;;21.20;45.80;;;;;;4747689;55;21504;-38
2022/01/12 16:44:07;;;;;;;206.18;156.00;;;21.20;45.70;;;;;;4748815;55;21006;-43
2022/01/12 16:49:08;;;;;;;213.55;159.75;;;21.10;45.50;;;;;;4742292;55;21042;-38
2022/01/12 16:54:09;;;;;;;219.45;166.55;;;21.10;45.50;;;;;;4738911;59;21001;-38
2022/01/12 16:59:10;;;;;;;216.82;161.60;;;21.10;45.40;;;;;;4770496;55;21026;-29
2022/01/12 17:04:12;;;;;;;211.25;159.57;;;21.00;45.40;;;;;;4749976;55;22221;-44
2022/01/12 17:09:13;;;;;;;200.90;155.30;;;21.00;45.40;;;;;;4746503;55;21034;-33
2022/01/12 17:14:17;;;;;;;206.00;154.55;;;21.00;45.30;;;;;;4761183;55;21087;-39
2022/01/12 17:19:21;;;;;;;205.07;155.25;;;21.00;45.30;;;;;;4771043;55;21112;-37
2022/01/12 17:24:27;;;;;;;213.62;163.18;;;20.90;45.20;;;;;;4744864;55;20998;-38
2022/01/12 17:29:28;;;;;;;204.30;158.48;;;20.90;45.10;;;;;;4764430;55;21014;-48
2022/01/12 17:34:29;;;;;;;198.52;152.77;;;20.90;45.10;;;;;;4744715;55;21534;-38
2022/01/12 17:39:37;;;;;;;203.80;159.37;;;20.90;45.10;;;;;;4759346;55;21033;-39
2022/01/12 17:44:46;;;;;;;206.13;153.40;;;20.90;45.00;;;;;;4749314;55;21467;-36
2022/01/12 17:50:08;;;;;;;199.18;151.02;;;20.80;44.90;;;;;;4742063;55;21053;-38
2022/01/12 17:55:16;;;;;;;202.35;156.27;;;20.80;44.90;;;;;;4747600;55;21519;-37
2022/01/12 18:00:19;;;;;;;194.52;151.55;;;20.80;44.80;;;;;;4737791;59;21069;-39
2022/01/12 18:05:21;;;;;;;209.43;157.82;;;20.80;44.80;;;;;;4769117;55;21081;-41
2022/01/12 18:10:22;;;;;;;194.90;148.45;;;20.80;44.70;;;;;;4789276;55;20994;-39
2022/01/12 18:15:29;;;;;;;198.82;152.90;;;20.80;44.70;;;;;;4738867;55;21034;-47
2022/01/12 18:20:30;;;;;;;197.70;148.15;;;20.70;44.60;;;;;;4789718;55;22051;-36
2022/01/12 18:25:31;;;;;;;201.27;152.82;;;20.70;44.60;;;;;;4806076;55;21050;-45
2022/01/12 18:30:32;;;;;;;195.23;150.85;;;20.70;44.60;;;;;;4746215;55;20994;-40
2022/01/12 18:35:33;;;;;;;198.02;150.98;;;20.70;44.50;;;;;;4755960;55;20994;-34
2022/01/12 18:40:46;;;;;;;195.80;150.70;;;20.70;44.40;;;;;;4796724;55;21607;-31
2022/01/12 18:45:47;;;;;;;194.35;151.23;;;20.70;44.40;;;;;;4737853;59;21024;-36
2022/01/12 18:50:51;;;;;;;192.52;146.80;;;20.70;44.40;;;;;;4760926;55;20998;-37
2022/01/12 18:55:52;;;;;;;191.07;147.32;;;20.60;44.30;;;;;;4783427;55;21701;-37
2022/01/12 19:00:52;;;;;;;186.05;146.37;;;20.70;44.30;;;;;;4749887;55;21006;-37
2022/01/12 19:05:53;;;;;;;191.90;151.80;;;20.70;44.30;;;;;;4738654;55;21609;-47
2022/01/12 19:10:54;;;;;;;190.43;149.60;;;20.70;44.20;;;;;;4796605;55;21488;-35
2022/01/12 19:15:56;;;;;;;192.50;147.10;;;20.60;44.10;;;;;;4778169;55;21074;-36
2022/01/12 19:20:57;;;;;;;189.90;144.05;;;20.70;44.20;;;;;;4741828;55;21559;-36
2022/01/12 19:26:00;;;;;;;186.10;144.13;;;20.60;44.10;;;;;;4737453;59;21127;-30
2022/01/12 19:31:01;;;;;;;194.27;150.48;;;20.60;44.10;;;;;;4757638;55;21063;-38
2022/01/12 19:36:02;;;;;;;195.07;148.80;;;20.60;44.10;;;;;;4737465;59;21003;-39
2022/01/12 19:41:03;;;;;;;193.37;149.20;;;20.60;44.00;;;;;;4784068;55;20994;-38
2022/01/12 19:46:04;;;;;;;182.62;142.02;;;20.60;43.90;;;;;;4737650;59;21531;-46
2022/01/12 19:51:05;;;;;;;190.15;146.93;;;20.60;44.00;;;;;;4737711;59;21961;-36
2022/01/12 19:56:12;;;;;;;190.05;144.32;;;20.60;43.90;;;;;;4781816;55;21540;-37
2022/01/12 20:01:31;;;;;;;189.90;144.77;;;20.50;43.80;;;;;;4751812;55;21475;-41
2022/01/12 20:06:32;;;;;;;183.90;141.75;;;20.60;43.80;;;;;;4737821;55;21646;-39
2022/01/12 20:11:33;;;;;;;188.48;145.10;;;20.50;43.70;;;;;;4759821;55;21013;-44
2022/01/12 20:16:43;;;;;;;188.65;146.50;;;20.50;43.70;;;;;;4746743;55;21057;-36
2022/01/12 20:24:54;;;;;;;192.27;146.13;;;20.50;43.60;;;;;;4759542;55;21073;-37
2022/01/12 20:29:56;;;;;;;190.70;146.15;;;20.50;43.60;;;;;;4737770;59;21069;-41
2022/01/12 20:35:05;;;;;;;179.80;138.40;;;20.50;43.50;;;;;;4738327;55;21049;-39
2022/01/12 20:40:10;;;;;;;185.37;143.95;;;20.50;43.40;;;;;;4740227;55;21503;-40
2022/01/12 20:45:12;;;;;;;181.68;140.88;;;20.50;43.60;;;;;;4746395;55;21149;-48
2022/01/12 20:50:13;;;;;;;179.40;139.25;;;20.50;43.60;;;;;;4762568;55;21083;-35
2022/01/12 20:55:14;;;;;;;180.50;140.90;;;20.50;43.50;;;;;;4753355;55;21563;-37
2022/01/12 21:00:15;;;;;;;182.10;140.65;;;20.50;43.50;;;;;;4827083;55;21045;-34
2022/01/12 21:05:16;;;;;;;179.02;139.02;;;20.50;43.40;;;;;;4767395;55;21006;-34
2022/01/12 21:10:17;;;;;;;180.30;139.12;;;20.50;43.40;;;;;;4761024;55;21476;-41
2022/01/12 21:15:18;;;;;;;174.50;135.55;;;20.40;43.30;;;;;;4745814;55;21018;-36
2022/01/12 21:20:19;;;;;;;179.15;140.55;;;20.40;43.30;;;;;;4762986;55;21085;-42
2022/01/12 21:25:20;;;;;;;173.75;136.37;;;20.40;43.30;;;;;;4738883;55;20994;-42
2022/01/12 21:30:21;;;;;;;177.57;139.32;;;20.40;43.30;;;;;;4737695;55;21090;-49
2022/01/12 21:35:26;;;;;;;169.82;133.93;;;20.40;43.30;;;;;;4764082;55;21033;-41
2022/01/12 21:40:43;;;;;;;172.85;134.63;;;20.40;43.10;;;;;;4738546;55;21467;-34
2022/01/12 21:45:49;;;;;;;170.60;132.77;;;20.40;43.30;;;;;;4755504;55;21475;-36
2022/01/12 21:50:50;;;;;;;168.00;131.82;;;20.40;43.20;;;;;;4765580;55;21495;-41
2022/01/12 21:55:51;;;;;;;167.27;132.20;;;20.40;43.10;;;;;;4746971;55;20997;-49
2022/01/12 22:00:53;;;;;;;166.85;133.15;;;20.40;43.10;;;;;;4762133;55;21022;-41
2022/01/12 22:05:54;;;;;;;169.52;130.75;;;20.40;43.10;;;;;;4750397;55;21099;-40
2022/01/12 22:10:55;;;;;;;162.52;126.97;;;20.40;43.10;;;;;;4737731;59;21551;-39
2022/01/12 22:15:56;;;;;;;167.65;131.52;;;20.40;43.00;;;;;;4755875;55;20986;-34
2022/01/12 22:20:57;;;;;;;170.12;130.20;;;20.30;43.00;;;;;;4756440;55;21043;-40
2022/01/12 22:25:58;;;;;;;163.27;127.47;;;20.30;43.00;;;;;;4749490;55;21500;-39
2022/01/12 22:30:59;;;;;;;161.02;126.97;;;20.30;42.80;;;;;;4738581;55;21042;-42
2022/01/12 22:36:00;;;;;;;166.55;129.00;;;20.30;42.80;;;;;;4774211;55;21579;-40
2022/01/12 22:41:01;;;;;;;156.85;121.00;;;20.30;42.90;;;;;;4738239;55;21002;-45
2022/01/12 22:46:02;;;;;;;162.02;125.75;;;20.30;42.70;;;;;;4758322;55;21487;-41
2022/01/12 22:51:03;;;;;;;158.20;122.78;;;20.30;42.70;;;;;;4773176;55;21114;-42
2022/01/12 22:56:05;;;;;;;159.00;124.10;;;20.30;42.70;;;;;;4737800;59;21575;-40
2022/01/12 23:01:12;;;;;;;155.18;122.20;;;20.30;42.60;;;;;;4780115;55;21495;-36
2022/01/12 23:06:14;;;;;;;156.63;121.95;;;20.30;42.60;;;;;;4744158;55;21511;-44
2022/01/12 23:11:16;;;;;;;156.43;122.90;;;20.30;42.60;;;;;;4752537;55;21014;-37
2022/01/12 23:16:17;;;;;;;157.62;123.45;;;20.30;42.60;;;;;;4790342;55;21516;-31
2022/01/12 23:21:18;;;;;;;155.65;121.22;;;20.30;42.60;;;;;;4737759;59;21030;-42
2022/01/12 23:26:19;;;;;;;148.32;118.75;;;20.30;42.50;;;;;;4753008;55;21029;-42
2022/01/12 23:31:22;;;;;;;154.20;120.37;;;20.30;42.60;;;;;;4771485;55;21503;-38
